High Level Airport
CYOJ : now visible

Airfield :











YOU CAN JOIN US ON...

 
LOGIN :

Register | Disclaimer

   EN    FR    IT 

 









Legend :    VFR   Marginal VFR   IFR   Intensive IFR   Very Intensive IFR
Visi :
Ceiling :
>= 8 km
>= 3000ft
5 to 8 km
1000 to 3000 ft
1500m to 5 km
500 to 1000 ft
800 to 1500m
200 to 500 ft
< 800m
< 200 ft
Symbols :   Thunderstorms  Fog  Heavy snow  Heavy precipitations  Wind > 20 kt






- Airport Elevation : 1110 ft
- IATA code : YOJ


CYOJ - High Level

CURRENT METAR :
  • 271400Z 14008KT 15SM FEW010 FEW100 BKN260 12/09 A2983 RMK CF1AC2CI4 CF TR CVCTV TOPS NE SLP112

EXPIRED METARs :
  • 271300Z AUTO 12007KT 9SM CLR 10/09 A2981 RMK SLP106
  • 271200Z AUTO 13004KT 9SM CLR 10/08 A2980 RMK SLP103
  • 271100Z AUTO 13006KT 9SM CLR 10/08 A2979 RMK SLP099
  • 271000Z AUTO 10003KT 9SM CLR 10/09 A2978 RMK SLP096

TAF TAF CYOJ
Valid from the 27 at 13:00 until the 28 at 01:00 UTC


271240Z 2713/2801 13005KT P6SM BKN220
BECMG 2715/2717 16008KT
FM272000 16008KT P6SM BKN100
TEMPO 2720/2801 P6SM -SHRA BKN060
PROB30 2722/2801 VRB15G25KT 5SM TSRA BKN050CB RMK FCST BASED ON AUTO OBS. NXT FCST BY 271900Z
CZEG FIR / North America



MET'MAP, your aeronautical weather chart ! - Copyright ORBIFLY December 2007 - Disclaimer

ORBIFLY MET'MAP TEAM :

Programming & Development : Alexandra Zaïnal
Original concept : Baudouin d'Aumeries
Technical & hardware support : Manuel Goepfert
Assistance : Marc-Olivier Méhu




SOURCES & CREDITS :

   NOAA       Earth
Advisory